sensor_id;sensor_type;location;lat;lon;timestamp;pressure;altitude;pressure_sealevel;temperature;humidity
53550;BME280;73079;52.914;-0.982;2024-01-16T00:02:16;100907.50;;;-2.19;70.20
53550;BME280;73079;52.914;-0.982;2024-01-16T00:04:42;100909.00;;;-2.15;69.20
53550;BME280;73079;52.914;-0.982;2024-01-16T00:07:07;100915.94;;;-2.14;68.99
53550;BME280;73079;52.914;-0.982;2024-01-16T00:09:33;100913.03;;;-2.09;69.13
53550;BME280;73079;52.914;-0.982;2024-01-16T00:11:59;100910.31;;;-2.07;68.90
53550;BME280;73079;52.914;-0.982;2024-01-16T00:14:27;100904.50;;;-2.13;69.50
53550;BME280;73079;52.914;-0.982;2024-01-16T00:16:53;100909.25;;;-2.05;69.52
53550;BME280;73079;52.914;-0.982;2024-01-16T00:19:18;100914.47;;;-2.18;69.85
53550;BME280;73079;52.914;-0.982;2024-01-16T00:21:44;100909.19;;;-2.18;70.14
53550;BME280;73079;52.914;-0.982;2024-01-16T00:24:13;100917.09;;;-2.18;70.44
53550;BME280;73079;52.914;-0.982;2024-01-16T00:26:39;100910.38;;;-2.36;70.93
53550;BME280;73079;52.914;-0.982;2024-01-16T00:29:05;100912.59;;;-2.30;70.44
53550;BME280;73079;52.914;-0.982;2024-01-16T00:31:33;100907.91;;;-2.25;70.49
53550;BME280;73079;52.914;-0.982;2024-01-16T00:33:59;100905.00;;;-2.35;70.57
53550;BME280;73079;52.914;-0.982;2024-01-16T00:36:25;100902.44;;;-2.22;70.82
53550;BME280;73079;52.914;-0.982;2024-01-16T00:38:51;100896.16;;;-2.34;71.35
53550;BME280;73079;52.914;-0.982;2024-01-16T00:41:16;100895.66;;;-2.26;71.08
53550;BME280;73079;52.914;-0.982;2024-01-16T00:43:43;100886.22;;;-2.43;71.76
53550;BME280;73079;52.914;-0.982;2024-01-16T00:46:09;100900.22;;;-2.42;72.02
53550;BME280;73079;52.914;-0.982;2024-01-16T00:48:36;100887.25;;;-2.45;72.13
53550;BME280;73079;52.914;-0.982;2024-01-16T00:51:02;100886.31;;;-2.44;72.50
53550;BME280;73079;52.914;-0.982;2024-01-16T00:53:28;100876.56;;;-2.57;72.57
53550;BME280;73079;52.914;-0.982;2024-01-16T00:55:53;100869.97;;;-2.50;72.60
53550;BME280;73079;52.914;-0.982;2024-01-16T00:58:23;100867.72;;;-2.56;73.19
53550;BME280;73079;52.914;-0.982;2024-01-16T01:00:48;100867.16;;;-2.46;72.96
53550;BME280;73079;52.914;-0.982;2024-01-16T01:03:14;100856.81;;;-2.50;73.06
53550;BME280;73079;52.914;-0.982;2024-01-16T01:05:42;100874.97;;;-2.45;72.62
53550;BME280;73079;52.914;-0.982;2024-01-16T01:08:08;100864.03;;;-2.39;73.04
53550;BME280;73079;52.914;-0.982;2024-01-16T01:10:34;100863.66;;;-2.33;72.84
53550;BME280;73079;52.914;-0.982;2024-01-16T01:13:00;100865.50;;;-2.35;73.05
53550;BME280;73079;52.914;-0.982;2024-01-16T01:15:26;100856.78;;;-2.35;72.83
53550;BME280;73079;52.914;-0.982;2024-01-16T01:17:51;100855.63;;;-2.31;73.17
53550;BME280;73079;52.914;-0.982;2024-01-16T01:20:18;100854.44;;;-2.25;73.11
53550;BME280;73079;52.914;-0.982;2024-01-16T01:22:46;100858.84;;;-2.40;73.20
53550;BME280;73079;52.914;-0.982;2024-01-16T01:25:12;100851.78;;;-2.25;73.46
53550;BME280;73079;52.914;-0.982;2024-01-16T01:27:38;100849.50;;;-2.17;72.56
53550;BME280;73079;52.914;-0.982;2024-01-16T01:30:05;100849.81;;;-2.22;72.37
53550;BME280;73079;52.914;-0.982;2024-01-16T01:32:31;100840.66;;;-2.16;72.63
53550;BME280;73079;52.914;-0.982;2024-01-16T01:34:57;100838.88;;;-2.16;72.27
53550;BME280;73079;52.914;-0.982;2024-01-16T01:37:23;100835.09;;;-2.12;72.05
53550;BME280;73079;52.914;-0.982;2024-01-16T01:39:50;100836.78;;;-2.11;72.16
53550;BME280;73079;52.914;-0.982;2024-01-16T01:42:17;100838.22;;;-2.19;72.42
53550;BME280;73079;52.914;-0.982;2024-01-16T01:44:42;100841.03;;;-2.22;72.53
53550;BME280;73079;52.914;-0.982;2024-01-16T01:47:08;100840.50;;;-2.27;72.83
53550;BME280;73079;52.914;-0.982;2024-01-16T01:49:35;100835.41;;;-2.16;72.07
53550;BME280;73079;52.914;-0.982;2024-01-16T01:52:01;100830.47;;;-2.08;71.97
53550;BME280;73079;52.914;-0.982;2024-01-16T01:54:29;100831.66;;;-1.99;71.60
53550;BME280;73079;52.914;-0.982;2024-01-16T01:56:57;100826.06;;;-2.07;71.50
53550;BME280;73079;52.914;-0.982;2024-01-16T01:59:24;100822.47;;;-2.06;71.41
53550;BME280;73079;52.914;-0.982;2024-01-16T02:01:51;100826.19;;;-1.96;71.42
53550;BME280;73079;52.914;-0.982;2024-01-16T02:04:21;100826.94;;;-1.94;71.25
53550;BME280;73079;52.914;-0.982;2024-01-16T02:06:47;100822.31;;;-1.91;70.59
53550;BME280;73079;52.914;-0.982;2024-01-16T02:09:13;100823.63;;;-2.11;70.82
53550;BME280;73079;52.914;-0.982;2024-01-16T02:11:39;100819.28;;;-2.12;71.29
53550;BME280;73079;52.914;-0.982;2024-01-16T02:14:06;100822.16;;;-2.15;71.10
53550;BME280;73079;52.914;-0.982;2024-01-16T02:16:36;100811.72;;;-2.16;71.04
53550;BME280;73079;52.914;-0.982;2024-01-16T02:19:04;100813.00;;;-2.09;71.12
53550;BME280;73079;52.914;-0.982;2024-01-16T02:21:37;100816.47;;;-2.08;71.32
53550;BME280;73079;52.914;-0.982;2024-01-16T02:24:06;100815.72;;;-2.11;71.56
53550;BME280;73079;52.914;-0.982;2024-01-16T02:26:32;100799.75;;;-2.07;71.42
53550;BME280;73079;52.914;-0.982;2024-01-16T02:29:00;100801.56;;;-1.95;71.52
53550;BME280;73079;52.914;-0.982;2024-01-16T02:31:26;100800.19;;;-2.28;72.27
53550;BME280;73079;52.914;-0.982;2024-01-16T02:33:52;100802.13;;;-2.17;71.79
53550;BME280;73079;52.914;-0.982;2024-01-16T02:36:18;100795.50;;;-2.10;71.79
53550;BME280;73079;52.914;-0.982;2024-01-16T02:38:44;100795.09;;;-2.17;71.79
53550;BME280;73079;52.914;-0.982;2024-01-16T02:41:13;100788.50;;;-2.24;72.82
53550;BME280;73079;52.914;-0.982;2024-01-16T02:43:39;100792.97;;;-2.12;72.35
53550;BME280;73079;52.914;-0.982;2024-01-16T02:46:05;100792.66;;;-2.20;73.00
53550;BME280;73079;52.914;-0.982;2024-01-16T02:48:30;100796.75;;;-2.16;72.63
53550;BME280;73079;52.914;-0.982;2024-01-16T02:50:56;100786.88;;;-2.12;72.84
53550;BME280;73079;52.914;-0.982;2024-01-16T02:53:22;100787.22;;;-2.31;73.05
53550;BME280;73079;52.914;-0.982;2024-01-16T02:55:47;100782.13;;;-2.20;72.58
53550;BME280;73079;52.914;-0.982;2024-01-16T02:58:14;100779.47;;;-2.20;72.40
53550;BME280;73079;52.914;-0.982;2024-01-16T03:00:40;100771.03;;;-2.25;72.92
53550;BME280;73079;52.914;-0.982;2024-01-16T03:03:06;100771.59;;;-2.20;72.61
53550;BME280;73079;52.914;-0.982;2024-01-16T03:05:35;100768.28;;;-2.36;72.99
53550;BME280;73079;52.914;-0.982;2024-01-16T03:08:06;100773.97;;;-2.30;73.18
53550;BME280;73079;52.914;-0.982;2024-01-16T03:10:34;100779.63;;;-2.36;73.59
53550;BME280;73079;52.914;-0.982;2024-01-16T03:13:02;100767.13;;;-2.32;73.39
53550;BME280;73079;52.914;-0.982;2024-01-16T03:15:33;100764.88;;;-2.38;73.52
53550;BME280;73079;52.914;-0.982;2024-01-16T03:18:01;100757.84;;;-2.38;73.81
53550;BME280;73079;52.914;-0.982;2024-01-16T03:20:27;100756.06;;;-2.37;74.08
53550;BME280;73079;52.914;-0.982;2024-01-16T03:22:55;100747.22;;;-2.36;73.47
53550;BME280;73079;52.914;-0.982;2024-01-16T03:25:22;100744.59;;;-2.36;73.58
53550;BME280;73079;52.914;-0.982;2024-01-16T03:27:48;100743.28;;;-2.43;73.68
53550;BME280;73079;52.914;-0.982;2024-01-16T03:30:14;100746.59;;;-2.40;73.65
53550;BME280;73079;52.914;-0.982;2024-01-16T03:32:42;100743.44;;;-2.32;73.35
53550;BME280;73079;52.914;-0.982;2024-01-16T03:35:10;100748.69;;;-2.32;73.21
53550;BME280;73079;52.914;-0.982;2024-01-16T03:37:38;100745.66;;;-2.26;73.09
53550;BME280;73079;52.914;-0.982;2024-01-16T03:40:05;100743.03;;;-2.26;73.43
53550;BME280;73079;52.914;-0.982;2024-01-16T03:42:33;100740.75;;;-2.05;72.54
53550;BME280;73079;52.914;-0.982;2024-01-16T03:44:58;100735.06;;;-2.12;73.13
53550;BME280;73079;52.914;-0.982;2024-01-16T03:47:24;100728.50;;;-2.19;73.78
53550;BME280;73079;52.914;-0.982;2024-01-16T03:49:51;100726.94;;;-2.21;74.16
53550;BME280;73079;52.914;-0.982;2024-01-16T03:52:17;100719.50;;;-2.15;73.03
53550;BME280;73079;52.914;-0.982;2024-01-16T03:54:43;100723.94;;;-2.02;72.29
53550;BME280;73079;52.914;-0.982;2024-01-16T03:57:09;100716.44;;;-2.08;72.47
53550;BME280;73079;52.914;-0.982;2024-01-16T03:59:36;100713.91;;;-2.10;72.71
53550;BME280;73079;52.914;-0.982;2024-01-16T04:02:02;100709.69;;;-2.13;72.98
53550;BME280;73079;52.914;-0.982;2024-01-16T04:04:28;100707.59;;;-2.07;73.35
53550;BME280;73079;52.914;-0.982;2024-01-16T04:06:55;100709.41;;;-1.95;73.20
53550;BME280;73079;52.914;-0.982;2024-01-16T04:09:21;100707.19;;;-2.01;72.92
53550;BME280;73079;52.914;-0.982;2024-01-16T04:11:50;100705.63;;;-1.91;73.02
53550;BME280;73079;52.914;-0.982;2024-01-16T04:14:15;100708.34;;;-2.05;73.61
53550;BME280;73079;52.914;-0.982;2024-01-16T04:16:41;100707.50;;;-1.93;73.40
53550;BME280;73079;52.914;-0.982;2024-01-16T04:19:07;100702.88;;;-1.89;73.53
53550;BME280;73079;52.914;-0.982;2024-01-16T04:21:33;100699.06;;;-1.98;74.06
53550;BME280;73079;52.914;-0.982;2024-01-16T04:24:00;100690.00;;;-1.94;74.46
53550;BME280;73079;52.914;-0.982;2024-01-16T04:26:26;100690.56;;;-1.89;74.68
53550;BME280;73079;52.914;-0.982;2024-01-16T04:28:52;100687.09;;;-1.89;74.63
53550;BME280;73079;52.914;-0.982;2024-01-16T04:31:18;100691.09;;;-1.84;74.67
53550;BME280;73079;52.914;-0.982;2024-01-16T04:33:47;100684.66;;;-1.80;74.24
53550;BME280;73079;52.914;-0.982;2024-01-16T04:36:13;100688.16;;;-1.79;74.54
53550;BME280;73079;52.914;-0.982;2024-01-16T04:38:39;100680.63;;;-1.73;74.38
53550;BME280;73079;52.914;-0.982;2024-01-16T04:41:06;100683.91;;;-1.82;74.76
53550;BME280;73079;52.914;-0.982;2024-01-16T04:43:32;100672.53;;;-1.69;74.92
53550;BME280;73079;52.914;-0.982;2024-01-16T04:45:57;100674.63;;;-1.75;75.13
53550;BME280;73079;52.914;-0.982;2024-01-16T04:48:23;100667.72;;;-1.76;74.86
53550;BME280;73079;52.914;-0.982;2024-01-16T04:50:49;100675.50;;;-1.74;74.87
53550;BME280;73079;52.914;-0.982;2024-01-16T04:53:15;100672.13;;;-1.63;74.98
53550;BME280;73079;52.914;-0.982;2024-01-16T04:55:41;100667.06;;;-1.66;75.13
53550;BME280;73079;52.914;-0.982;2024-01-16T04:58:08;100665.38;;;-1.67;75.20
53550;BME280;73079;52.914;-0.982;2024-01-16T05:00:34;100659.56;;;-1.73;75.60
53550;BME280;73079;52.914;-0.982;2024-01-16T05:03:03;100672.53;;;-1.69;75.74
53550;BME280;73079;52.914;-0.982;2024-01-16T05:05:30;100667.28;;;-1.69;75.28
53550;BME280;73079;52.914;-0.982;2024-01-16T05:07:56;100664.97;;;-1.74;75.77
53550;BME280;73079;52.914;-0.982;2024-01-16T05:10:21;100668.44;;;-1.74;75.99
53550;BME280;73079;52.914;-0.982;2024-01-16T05:12:48;100662.19;;;-1.73;76.42
53550;BME280;73079;52.914;-0.982;2024-01-16T05:15:15;100660.97;;;-1.67;76.29
53550;BME280;73079;52.914;-0.982;2024-01-16T05:17:40;100660.34;;;-1.70;76.36
53550;BME280;73079;52.914;-0.982;2024-01-16T05:20:08;100658.63;;;-1.59;76.52
53550;BME280;73079;52.914;-0.982;2024-01-16T05:22:34;100663.56;;;-1.54;76.40
53550;BME280;73079;52.914;-0.982;2024-01-16T05:24:59;100660.94;;;-1.54;75.87
53550;BME280;73079;52.914;-0.982;2024-01-16T05:27:26;100651.66;;;-1.47;75.88
53550;BME280;73079;52.914;-0.982;2024-01-16T05:29:52;100645.00;;;-1.40;76.05
53550;BME280;73079;52.914;-0.982;2024-01-16T05:32:19;100653.94;;;-1.42;76.41
53550;BME280;73079;52.914;-0.982;2024-01-16T05:34:45;100652.28;;;-1.43;76.93
53550;BME280;73079;52.914;-0.982;2024-01-16T05:37:11;100649.31;;;-1.39;76.10
53550;BME280;73079;52.914;-0.982;2024-01-16T05:39:37;100651.22;;;-1.54;77.19
53550;BME280;73079;52.914;-0.982;2024-01-16T05:42:03;100643.53;;;-1.57;76.90
53550;BME280;73079;52.914;-0.982;2024-01-16T05:44:29;100635.75;;;-1.58;77.67
53550;BME280;73079;52.914;-0.982;2024-01-16T05:46:55;100638.78;;;-1.51;76.93
53550;BME280;73079;52.914;-0.982;2024-01-16T05:49:22;100632.56;;;-1.38;76.23
53550;BME280;73079;52.914;-0.982;2024-01-16T05:51:48;100636.25;;;-1.40;76.67
53550;BME280;73079;52.914;-0.982;2024-01-16T05:54:14;100630.38;;;-1.44;77.56
53550;BME280;73079;52.914;-0.982;2024-01-16T05:56:40;100633.91;;;-1.32;76.59
53550;BME280;73079;52.914;-0.982;2024-01-16T05:59:07;100642.44;;;-1.28;76.75
53550;BME280;73079;52.914;-0.982;2024-01-16T06:01:32;100643.41;;;-1.29;77.43
53550;BME280;73079;52.914;-0.982;2024-01-16T06:03:58;100629.03;;;-1.25;76.31
53550;BME280;73079;52.914;-0.982;2024-01-16T06:06:25;100625.88;;;-1.30;76.55
53550;BME280;73079;52.914;-0.982;2024-01-16T06:08:52;100623.34;;;-1.32;77.08
53550;BME280;73079;52.914;-0.982;2024-01-16T06:11:18;100627.13;;;-1.23;76.81
53550;BME280;73079;52.914;-0.982;2024-01-16T06:13:45;100623.56;;;-1.35;77.74
53550;BME280;73079;52.914;-0.982;2024-01-16T06:16:11;100629.72;;;-1.35;77.51
53550;BME280;73079;52.914;-0.982;2024-01-16T06:18:37;100621.59;;;-1.31;77.72
53550;BME280;73079;52.914;-0.982;2024-01-16T06:21:03;100615.34;;;-1.30;77.71
53550;BME280;73079;52.914;-0.982;2024-01-16T06:23:30;100611.38;;;-1.36;77.71
53550;BME280;73079;52.914;-0.982;2024-01-16T06:25:56;100612.66;;;-1.42;77.95
53550;BME280;73079;52.914;-0.982;2024-01-16T06:28:21;100607.78;;;-1.48;77.58
53550;BME280;73079;52.914;-0.982;2024-01-16T06:30:47;100597.72;;;-1.54;78.39
53550;BME280;73079;52.914;-0.982;2024-01-16T06:33:13;100593.91;;;-1.50;78.09
53550;BME280;73079;52.914;-0.982;2024-01-16T06:35:38;100608.88;;;-1.50;78.24
53550;BME280;73079;52.914;-0.982;2024-01-16T06:38:04;100607.59;;;-1.45;78.39
53550;BME280;73079;52.914;-0.982;2024-01-16T06:40:31;100601.47;;;-1.45;78.46
53550;BME280;73079;52.914;-0.982;2024-01-16T06:42:57;100594.56;;;-1.59;79.07
53550;BME280;73079;52.914;-0.982;2024-01-16T06:45:23;100588.63;;;-1.50;78.63
53550;BME280;73079;52.914;-0.982;2024-01-16T06:47:48;100588.97;;;-1.67;78.86
53550;BME280;73079;52.914;-0.982;2024-01-16T06:50:14;100580.09;;;-1.54;79.70
53550;BME280;73079;52.914;-0.982;2024-01-16T06:52:40;100578.66;;;-1.34;78.93
53550;BME280;73079;52.914;-0.982;2024-01-16T06:55:06;100573.16;;;-1.30;78.45
53550;BME280;73079;52.914;-0.982;2024-01-16T06:57:33;100575.03;;;-1.44;79.13
53550;BME280;73079;52.914;-0.982;2024-01-16T06:59:59;100569.44;;;-1.52;79.31
53550;BME280;73079;52.914;-0.982;2024-01-16T07:02:25;100567.25;;;-1.58;79.64
53550;BME280;73079;52.914;-0.982;2024-01-16T07:04:51;100565.06;;;-1.64;80.00
53550;BME280;73079;52.914;-0.982;2024-01-16T07:07:17;100565.78;;;-1.62;80.26
53550;BME280;73079;52.914;-0.982;2024-01-16T07:09:43;100568.88;;;-1.31;79.00
53550;BME280;73079;52.914;-0.982;2024-01-16T07:12:09;100564.19;;;-1.52;80.72
53550;BME280;73079;52.914;-0.982;2024-01-16T07:14:36;100565.41;;;-1.45;80.26
53550;BME280;73079;52.914;-0.982;2024-01-16T07:17:03;100557.63;;;-1.46;81.67
53550;BME280;73079;52.914;-0.982;2024-01-16T07:19:29;100555.19;;;-1.37;81.56
53550;BME280;73079;52.914;-0.982;2024-01-16T07:21:55;100554.22;;;-1.36;80.43
53550;BME280;73079;52.914;-0.982;2024-01-16T07:24:21;100557.34;;;-1.30;80.61
53550;BME280;73079;52.914;-0.982;2024-01-16T07:26:46;100559.31;;;-1.45;81.89
53550;BME280;73079;52.914;-0.982;2024-01-16T07:29:12;100551.56;;;-1.36;80.29
53550;BME280;73079;52.914;-0.982;2024-01-16T07:31:39;100556.44;;;-1.42;80.04
53550;BME280;73079;52.914;-0.982;2024-01-16T07:34:05;100559.06;;;-1.42;81.63
53550;BME280;73079;52.914;-0.982;2024-01-16T07:36:32;100547.28;;;-1.37;80.39
53550;BME280;73079;52.914;-0.982;2024-01-16T07:38:57;100556.56;;;-1.44;80.49
53550;BME280;73079;52.914;-0.982;2024-01-16T07:41:23;100552.59;;;-1.25;80.68
53550;BME280;73079;52.914;-0.982;2024-01-16T07:43:49;100552.53;;;-1.37;80.99
53550;BME280;73079;52.914;-0.982;2024-01-16T07:46:15;100555.41;;;-1.40;80.69
53550;BME280;73079;52.914;-0.982;2024-01-16T07:48:43;100553.44;;;-1.49;81.78
53550;BME280;73079;52.914;-0.982;2024-01-16T07:51:09;100548.31;;;-1.39;81.52
53550;BME280;73079;52.914;-0.982;2024-01-16T07:53:34;100546.47;;;-1.50;82.21
53550;BME280;73079;52.914;-0.982;2024-01-16T07:56:00;100537.44;;;-1.59;82.42
53550;BME280;73079;52.914;-0.982;2024-01-16T07:58:26;100541.28;;;-1.76;83.44
53550;BME280;73079;52.914;-0.982;2024-01-16T08:00:51;100532.88;;;-1.81;84.44
53550;BME280;73079;52.914;-0.982;2024-01-16T08:03:17;100525.63;;;-1.90;86.03
53550;BME280;73079;52.914;-0.982;2024-01-16T08:05:44;100527.09;;;-1.99;86.78
53550;BME280;73079;52.914;-0.982;2024-01-16T08:08:10;100525.16;;;-1.84;86.07
53550;BME280;73079;52.914;-0.982;2024-01-16T08:10:36;100530.88;;;-1.90;86.12
53550;BME280;73079;52.914;-0.982;2024-01-16T08:13:02;100536.88;;;-2.01;86.05
53550;BME280;73079;52.914;-0.982;2024-01-16T08:15:28;100529.75;;;-2.24;90.36
53550;BME280;73079;52.914;-0.982;2024-01-16T08:17:54;100528.09;;;-2.25;91.23
53550;BME280;73079;52.914;-0.982;2024-01-16T08:20:20;100523.25;;;-2.44;92.79
53550;BME280;73079;52.914;-0.982;2024-01-16T08:22:47;100527.03;;;-2.49;95.51
53550;BME280;73079;52.914;-0.982;2024-01-16T08:25:15;100529.34;;;-2.44;97.44
53550;BME280;73079;52.914;-0.982;2024-01-16T08:27:41;100521.56;;;-2.33;93.79
53550;BME280;73079;52.914;-0.982;2024-01-16T08:30:10;100517.34;;;-2.35;92.76
53550;BME280;73079;52.914;-0.982;2024-01-16T08:32:36;100521.44;;;-2.31;92.79
53550;BME280;73079;52.914;-0.982;2024-01-16T08:35:03;100514.38;;;-2.43;94.92
53550;BME280;73079;52.914;-0.982;2024-01-16T08:37:31;100513.13;;;-2.25;94.23
53550;BME280;73079;52.914;-0.982;2024-01-16T08:39:58;100499.25;;;-2.40;95.76
53550;BME280;73079;52.914;-0.982;2024-01-16T08:42:24;100499.88;;;-2.36;97.44
53550;BME280;73079;52.914;-0.982;2024-01-16T08:44:50;100508.06;;;-2.28;95.65
53550;BME280;73079;52.914;-0.982;2024-01-16T08:47:16;100508.69;;;-2.24;95.00
53550;BME280;73079;52.914;-0.982;2024-01-16T08:49:42;100505.63;;;-2.05;90.07
53550;BME280;73079;52.914;-0.982;2024-01-16T08:52:09;100501.09;;;-2.03;90.36
53550;BME280;73079;52.914;-0.982;2024-01-16T08:54:35;100501.81;;;-2.01;89.26
53550;BME280;73079;52.914;-0.982;2024-01-16T08:57:03;100498.53;;;-1.92;88.22
53550;BME280;73079;52.914;-0.982;2024-01-16T08:59:29;100488.56;;;-1.63;86.00
53550;BME280;73079;52.914;-0.982;2024-01-16T09:01:55;100482.94;;;-1.58;84.18
53550;BME280;73079;52.914;-0.982;2024-01-16T09:04:21;100471.19;;;-1.41;83.82
53550;BME280;73079;52.914;-0.982;2024-01-16T09:06:47;100479.06;;;-1.17;81.93
53550;BME280;73079;52.914;-0.982;2024-01-16T09:09:13;100475.94;;;-1.22;82.22
53550;BME280;73079;52.914;-0.982;2024-01-16T09:11:38;100475.94;;;-1.22;81.81
53550;BME280;73079;52.914;-0.982;2024-01-16T09:14:06;100472.41;;;-0.99;81.23
53550;BME280;73079;52.914;-0.982;2024-01-16T09:16:31;100461.59;;;-1.07;80.89
53550;BME280;73079;52.914;-0.982;2024-01-16T09:18:57;100458.28;;;-0.98;81.27
53550;BME280;73079;52.914;-0.982;2024-01-16T09:21:23;100454.38;;;-1.16;81.92
53550;BME280;73079;52.914;-0.982;2024-01-16T09:23:49;100455.28;;;-1.28;82.52
53550;BME280;73079;52.914;-0.982;2024-01-16T09:26:24;100452.63;;;-1.40;84.94
53550;BME280;73079;52.914;-0.982;2024-01-16T09:28:50;100448.06;;;-1.13;83.79
53550;BME280;73079;52.914;-0.982;2024-01-16T09:31:17;100453.13;;;-0.99;83.56
53550;BME280;73079;52.914;-0.982;2024-01-16T09:33:43;100440.94;;;-0.78;82.09
53550;BME280;73079;52.914;-0.982;2024-01-16T09:36:09;100435.06;;;-0.70;82.48
53550;BME280;73079;52.914;-0.982;2024-01-16T09:38:34;100439.38;;;-0.69;82.26
53550;BME280;73079;52.914;-0.982;2024-01-16T09:41:01;100434.09;;;-0.58;81.39
53550;BME280;73079;52.914;-0.982;2024-01-16T09:43:28;100437.22;;;-0.41;80.31
53550;BME280;73079;52.914;-0.982;2024-01-16T09:45:55;100436.03;;;-0.26;79.74
53550;BME280;73079;52.914;-0.982;2024-01-16T09:48:24;100433.25;;;-0.02;79.15
53550;BME280;73079;52.914;-0.982;2024-01-16T09:50:51;100435.97;;;0.08;78.77
53550;BME280;73079;52.914;-0.982;2024-01-16T09:53:16;100422.53;;;0.11;78.74
53550;BME280;73079;52.914;-0.982;2024-01-16T09:55:42;100424.66;;;0.17;78.36
53550;BME280;73079;52.914;-0.982;2024-01-16T09:58:09;100418.47;;;0.07;78.52
53550;BME280;73079;52.914;-0.982;2024-01-16T10:00:40;100420.72;;;0.23;78.62
53550;BME280;73079;52.914;-0.982;2024-01-16T10:03:07;100414.22;;;0.16;78.43
53550;BME280;73079;52.914;-0.982;2024-01-16T10:05:35;100409.53;;;0.19;78.35
53550;BME280;73079;52.914;-0.982;2024-01-16T10:08:01;100409.56;;;0.08;78.88
53550;BME280;73079;52.914;-0.982;2024-01-16T10:10:27;100406.63;;;0.23;78.26
53550;BME280;73079;52.914;-0.982;2024-01-16T10:12:54;100411.63;;;0.37;77.97
53550;BME280;73079;52.914;-0.982;2024-01-16T10:15:21;100411.84;;;0.45;78.02
53550;BME280;73079;52.914;-0.982;2024-01-16T10:17:47;100415.84;;;0.40;77.86
53550;BME280;73079;52.914;-0.982;2024-01-16T10:20:13;100409.41;;;0.74;76.65
53550;BME280;73079;52.914;-0.982;2024-01-16T10:22:52;100413.25;;;0.61;77.32
53550;BME280;73079;52.914;-0.982;2024-01-16T10:25:19;100408.91;;;0.60;77.50
53550;BME280;73079;52.914;-0.982;2024-01-16T10:27:47;100406.31;;;0.48;78.29
53550;BME280;73079;52.914;-0.982;2024-01-16T10:30:13;100410.72;;;0.27;78.29
53550;BME280;73079;52.914;-0.982;2024-01-16T10:32:40;100400.19;;;0.48;77.75
53550;BME280;73079;52.914;-0.982;2024-01-16T10:35:07;100393.09;;;0.48;78.23
53550;BME280;73079;52.914;-0.982;2024-01-16T10:37:48;100385.75;;;0.19;79.22
53550;BME280;73079;52.914;-0.982;2024-01-16T10:40:16;100385.44;;;0.02;80.13
53550;BME280;73079;52.914;-0.982;2024-01-16T10:42:42;100392.00;;;0.18;80.15
53550;BME280;73079;52.914;-0.982;2024-01-16T10:45:11;100387.91;;;0.26;80.21
53550;BME280;73079;52.914;-0.982;2024-01-16T10:47:42;100379.31;;;0.45;79.60
53550;BME280;73079;52.914;-0.982;2024-01-16T10:50:08;100381.88;;;0.56;79.54
53550;BME280;73079;52.914;-0.982;2024-01-16T10:52:35;100380.75;;;0.70;79.07
53550;BME280;73079;52.914;-0.982;2024-01-16T10:55:09;100382.97;;;0.74;79.15
53550;BME280;73079;52.914;-0.982;2024-01-16T10:57:39;100374.28;;;0.84;77.90
53550;BME280;73079;52.914;-0.982;2024-01-16T11:00:08;100382.16;;;0.95;77.99
53550;BME280;73079;52.914;-0.982;2024-01-16T11:02:43;100377.69;;;0.95;77.74
53550;BME280;73079;52.914;-0.982;2024-01-16T11:05:11;100371.44;;;0.97;77.76
53550;BME280;73079;52.914;-0.982;2024-01-16T11:07:40;100362.69;;;0.96;78.15
53550;BME280;73079;52.914;-0.982;2024-01-16T11:10:09;100363.06;;;1.22;77.51
53550;BME280;73079;52.914;-0.982;2024-01-16T11:12:36;100356.13;;;1.21;77.25
53550;BME280;73079;52.914;-0.982;2024-01-16T11:15:04;100347.94;;;1.34;76.63
53550;BME280;73079;52.914;-0.982;2024-01-16T11:17:33;100350.03;;;1.00;77.43
53550;BME280;73079;52.914;-0.982;2024-01-16T11:20:01;100348.88;;;0.92;78.37
53550;BME280;73079;52.914;-0.982;2024-01-16T11:22:31;100337.06;;;0.97;78.19
53550;BME280;73079;52.914;-0.982;2024-01-16T11:25:11;100344.91;;;1.08;78.54
53550;BME280;73079;52.914;-0.982;2024-01-16T11:27:39;100347.81;;;1.36;77.69
53550;BME280;73079;52.914;-0.982;2024-01-16T11:30:07;100341.06;;;1.62;76.15
53550;BME280;73079;52.914;-0.982;2024-01-16T11:32:35;100333.69;;;1.76;75.83
53550;BME280;73079;52.914;-0.982;2024-01-16T11:35:01;100326.06;;;1.73;75.85
53550;BME280;73079;52.914;-0.982;2024-01-16T11:37:28;100320.31;;;1.67;75.52
53550;BME280;73079;52.914;-0.982;2024-01-16T11:40:26;100311.34;;;1.49;75.60
53550;BME280;73079;52.914;-0.982;2024-01-16T11:42:53;100308.00;;;1.47;75.55
53550;BME280;73079;52.914;-0.982;2024-01-16T11:45:48;100306.75;;;1.51;75.41
53550;BME280;73079;52.914;-0.982;2024-01-16T11:48:15;100292.28;;;1.55;76.38
53550;BME280;73079;52.914;-0.982;2024-01-16T11:50:41;100286.00;;;1.46;76.74
53550;BME280;73079;52.914;-0.982;2024-01-16T11:53:08;100282.13;;;1.60;76.12
53550;BME280;73079;52.914;-0.982;2024-01-16T11:55:44;100277.13;;;1.77;75.01
53550;BME280;73079;52.914;-0.982;2024-01-16T11:58:31;100272.66;;;1.87;74.38
53550;BME280;73079;52.914;-0.982;2024-01-16T12:01:05;100262.91;;;1.97;73.63
53550;BME280;73079;52.914;-0.982;2024-01-16T12:03:32;100254.53;;;2.12;73.74
53550;BME280;73079;52.914;-0.982;2024-01-16T12:05:59;100252.28;;;2.17;73.14
53550;BME280;73079;52.914;-0.982;2024-01-16T12:08:25;100243.09;;;2.21;72.43
53550;BME280;73079;52.914;-0.982;2024-01-16T12:10:52;100240.41;;;2.31;72.99
53550;BME280;73079;52.914;-0.982;2024-01-16T12:13:18;100236.34;;;2.36;72.41
53550;BME280;73079;52.914;-0.982;2024-01-16T12:15:44;100231.19;;;2.44;72.90
53550;BME280;73079;52.914;-0.982;2024-01-16T12:18:17;100233.13;;;2.42;72.85
53550;BME280;73079;52.914;-0.982;2024-01-16T12:20:43;100229.63;;;2.52;71.23
53550;BME280;73079;52.914;-0.982;2024-01-16T12:23:09;100224.19;;;2.53;71.58
53550;BME280;73079;52.914;-0.982;2024-01-16T12:25:36;100224.31;;;2.61;72.10
53550;BME280;73079;52.914;-0.982;2024-01-16T12:28:05;100218.84;;;2.63;71.85
53550;BME280;73079;52.914;-0.982;2024-01-16T12:30:32;100216.56;;;2.78;71.41
53550;BME280;73079;52.914;-0.982;2024-01-16T12:33:09;100202.94;;;2.91;70.62
53550;BME280;73079;52.914;-0.982;2024-01-16T12:35:36;100204.31;;;2.95;70.47
53550;BME280;73079;52.914;-0.982;2024-01-16T12:38:03;100191.75;;;2.97;69.74
53550;BME280;73079;52.914;-0.982;2024-01-16T12:40:31;100188.28;;;3.14;69.10
53550;BME280;73079;52.914;-0.982;2024-01-16T12:42:59;100190.22;;;3.22;69.79